sensor_id;sensor_type;location;lat;lon;timestamp;P1;durP1;ratioP1;P2;durP2;ratioP2
18532;SDS011;9396;51.510;11.934;2022-11-04T00:01:33;7.87;;;5.00;;
18532;SDS011;9396;51.510;11.934;2022-11-04T00:04:04;6.80;;;4.90;;
18532;SDS011;9396;51.510;11.934;2022-11-04T00:06:31;7.13;;;4.80;;
18532;SDS011;9396;51.510;11.934;2022-11-04T00:08:58;9.37;;;4.47;;
18532;SDS011;9396;51.510;11.934;2022-11-04T00:11:25;10.03;;;4.73;;
18532;SDS011;9396;51.510;11.934;2022-11-04T00:14:11;8.87;;;5.57;;
18532;SDS011;9396;51.510;11.934;2022-11-04T00:16:38;9.83;;;5.27;;
18532;SDS011;9396;51.510;11.934;2022-11-04T00:19:24;6.40;;;4.43;;
18532;SDS011;9396;51.510;11.934;2022-11-04T00:21:51;8.03;;;5.27;;
18532;SDS011;9396;51.510;11.934;2022-11-04T00:24:35;8.80;;;4.80;;
18532;SDS011;9396;51.510;11.934;2022-11-04T00:27:19;7.67;;;4.67;;
18532;SDS011;9396;51.510;11.934;2022-11-04T00:30:05;7.47;;;4.60;;
18532;SDS011;9396;51.510;11.934;2022-11-04T00:32:35;9.20;;;4.47;;
18532;SDS011;9396;51.510;11.934;2022-11-04T00:35:20;9.43;;;4.80;;
18532;SDS011;9396;51.510;11.934;2022-11-04T00:37:47;9.43;;;5.00;;
18532;SDS011;9396;51.510;11.934;2022-11-04T00:40:14;9.77;;;4.73;;
18532;SDS011;9396;51.510;11.934;2022-11-04T00:42:42;8.23;;;5.40;;
18532;SDS011;9396;51.510;11.934;2022-11-04T00:45:09;11.00;;;5.27;;
18532;SDS011;9396;51.510;11.934;2022-11-04T00:47:36;9.03;;;5.03;;
18532;SDS011;9396;51.510;11.934;2022-11-04T00:50:03;9.30;;;5.73;;
18532;SDS011;9396;51.510;11.934;2022-11-04T00:52:32;11.33;;;5.93;;
18532;SDS011;9396;51.510;11.934;2022-11-04T00:54:58;11.33;;;5.83;;
18532;SDS011;9396;51.510;11.934;2022-11-04T00:57:25;7.10;;;5.47;;
18532;SDS011;9396;51.510;11.934;2022-11-04T00:59:52;11.00;;;6.00;;
18532;SDS011;9396;51.510;11.934;2022-11-04T01:02:18;6.73;;;5.27;;
18532;SDS011;9396;51.510;11.934;2022-11-04T01:04:45;10.13;;;5.93;;
18532;SDS011;9396;51.510;11.934;2022-11-04T01:07:12;11.63;;;5.93;;
18532;SDS011;9396;51.510;11.934;2022-11-04T01:09:40;10.30;;;5.83;;
18532;SDS011;9396;51.510;11.934;2022-11-04T01:12:07;10.73;;;6.33;;
18532;SDS011;9396;51.510;11.934;2022-11-04T01:14:33;10.20;;;5.57;;
18532;SDS011;9396;51.510;11.934;2022-11-04T01:17:00;13.70;;;6.43;;
18532;SDS011;9396;51.510;11.934;2022-11-04T01:19:27;8.57;;;5.40;;
18532;SDS011;9396;51.510;11.934;2022-11-04T01:21:53;8.00;;;5.20;;
18532;SDS011;9396;51.510;11.934;2022-11-04T01:24:20;8.57;;;5.60;;
18532;SDS011;9396;51.510;11.934;2022-11-04T01:26:48;8.37;;;4.87;;
18532;SDS011;9396;51.510;11.934;2022-11-04T01:29:15;12.37;;;5.60;;
18532;SDS011;9396;51.510;11.934;2022-11-04T01:31:41;7.53;;;4.93;;
18532;SDS011;9396;51.510;11.934;2022-11-04T01:34:08;9.17;;;5.37;;
18532;SDS011;9396;51.510;11.934;2022-11-04T01:36:35;10.60;;;5.83;;
18532;SDS011;9396;51.510;11.934;2022-11-04T01:39:02;9.63;;;5.17;;
18532;SDS011;9396;51.510;11.934;2022-11-04T01:41:30;6.47;;;4.93;;
18532;SDS011;9396;51.510;11.934;2022-11-04T01:44:00;7.03;;;5.27;;
18532;SDS011;9396;51.510;11.934;2022-11-04T01:46:33;14.70;;;5.73;;
18532;SDS011;9396;51.510;11.934;2022-11-04T01:49:07;9.97;;;5.37;;
18532;SDS011;9396;51.510;11.934;2022-11-04T01:51:44;8.97;;;4.57;;
18532;SDS011;9396;51.510;11.934;2022-11-04T01:54:14;7.47;;;5.37;;
18532;SDS011;9396;51.510;11.934;2022-11-04T01:56:41;11.80;;;5.33;;
18532;SDS011;9396;51.510;11.934;2022-11-04T01:59:11;5.70;;;4.77;;
18532;SDS011;9396;51.510;11.934;2022-11-04T02:01:43;10.30;;;5.33;;
18532;SDS011;9396;51.510;11.934;2022-11-04T02:04:10;9.80;;;5.90;;
18532;SDS011;9396;51.510;11.934;2022-11-04T02:06:51;8.77;;;5.03;;
18532;SDS011;9396;51.510;11.934;2022-11-04T02:09:20;9.50;;;5.20;;
18532;SDS011;9396;51.510;11.934;2022-11-04T02:11:49;8.10;;;5.17;;
18532;SDS011;9396;51.510;11.934;2022-11-04T02:14:34;10.60;;;5.80;;
18532;SDS011;9396;51.510;11.934;2022-11-04T02:17:04;8.63;;;5.40;;
18532;SDS011;9396;51.510;11.934;2022-11-04T02:25:42;7.50;;;5.03;;
18532;SDS011;9396;51.510;11.934;2022-11-04T02:28:37;11.83;;;5.73;;
18532;SDS011;9396;51.510;11.934;2022-11-04T02:31:21;13.00;;;5.73;;
18532;SDS011;9396;51.510;11.934;2022-11-04T02:33:57;9.23;;;5.60;;
18532;SDS011;9396;51.510;11.934;2022-11-04T02:36:31;9.57;;;5.33;;
18532;SDS011;9396;51.510;11.934;2022-11-04T02:39:06;10.57;;;5.43;;
18532;SDS011;9396;51.510;11.934;2022-11-04T02:41:43;12.23;;;5.77;;
18532;SDS011;9396;51.510;11.934;2022-11-04T02:44:18;10.07;;;5.60;;
18532;SDS011;9396;51.510;11.934;2022-11-04T02:46:54;8.97;;;5.47;;
18532;SDS011;9396;51.510;11.934;2022-11-04T02:49:26;9.97;;;5.63;;
18532;SDS011;9396;51.510;11.934;2022-11-04T02:52:00;9.97;;;6.30;;
18532;SDS011;9396;51.510;11.934;2022-11-04T02:54:32;10.47;;;6.23;;
18532;SDS011;9396;51.510;11.934;2022-11-04T02:57:05;13.97;;;5.80;;
18532;SDS011;9396;51.510;11.934;2022-11-04T02:59:35;9.80;;;5.97;;
18532;SDS011;9396;51.510;11.934;2022-11-04T03:02:07;8.97;;;5.57;;
18532;SDS011;9396;51.510;11.934;2022-11-04T03:04:37;10.80;;;5.10;;
18532;SDS011;9396;51.510;11.934;2022-11-04T03:07:09;8.10;;;5.00;;
18532;SDS011;9396;51.510;11.934;2022-11-04T03:09:40;12.50;;;5.63;;
18532;SDS011;9396;51.510;11.934;2022-11-04T03:12:12;8.50;;;5.57;;
18532;SDS011;9396;51.510;11.934;2022-11-04T03:14:43;6.07;;;5.13;;
18532;SDS011;9396;51.510;11.934;2022-11-04T03:17:16;5.70;;;4.20;;
18532;SDS011;9396;51.510;11.934;2022-11-04T03:19:48;8.27;;;4.93;;
18532;SDS011;9396;51.510;11.934;2022-11-04T03:22:20;8.17;;;4.70;;
18532;SDS011;9396;51.510;11.934;2022-11-04T03:24:48;6.70;;;5.10;;
18532;SDS011;9396;51.510;11.934;2022-11-04T03:27:18;8.17;;;5.07;;
18532;SDS011;9396;51.510;11.934;2022-11-04T03:29:52;7.60;;;5.13;;
18532;SDS011;9396;51.510;11.934;2022-11-04T03:32:28;8.10;;;5.23;;
18532;SDS011;9396;51.510;11.934;2022-11-04T03:35:06;7.30;;;4.50;;
18532;SDS011;9396;51.510;11.934;2022-11-04T03:37:34;12.60;;;5.27;;
18532;SDS011;9396;51.510;11.934;2022-11-04T03:40:00;7.57;;;5.10;;
18532;SDS011;9396;51.510;11.934;2022-11-04T03:42:28;6.30;;;5.03;;
18532;SDS011;9396;51.510;11.934;2022-11-04T03:44:57;7.33;;;5.03;;
18532;SDS011;9396;51.510;11.934;2022-11-04T03:47:26;8.07;;;4.70;;
18532;SDS011;9396;51.510;11.934;2022-11-04T03:49:56;10.30;;;4.90;;
18532;SDS011;9396;51.510;11.934;2022-11-04T03:52:29;6.13;;;4.97;;
18532;SDS011;9396;51.510;11.934;2022-11-04T03:54:56;6.27;;;4.87;;
18532;SDS011;9396;51.510;11.934;2022-11-04T03:57:26;7.67;;;4.97;;
18532;SDS011;9396;51.510;11.934;2022-11-04T04:00:10;7.80;;;4.97;;
18532;SDS011;9396;51.510;11.934;2022-11-04T04:02:56;8.33;;;4.93;;
18532;SDS011;9396;51.510;11.934;2022-11-04T04:05:28;9.50;;;4.50;;
18532;SDS011;9396;51.510;11.934;2022-11-04T04:07:59;7.13;;;4.73;;
18532;SDS011;9396;51.510;11.934;2022-11-04T04:10:36;8.70;;;5.10;;
18532;SDS011;9396;51.510;11.934;2022-11-04T04:13:11;7.63;;;4.87;;
18532;SDS011;9396;51.510;11.934;2022-11-04T04:15:44;8.87;;;4.93;;
18532;SDS011;9396;51.510;11.934;2022-11-04T04:18:17;8.20;;;4.87;;
18532;SDS011;9396;51.510;11.934;2022-11-04T04:20:52;6.27;;;5.03;;
18532;SDS011;9396;51.510;11.934;2022-11-04T04:23:23;12.40;;;4.90;;
18532;SDS011;9396;51.510;11.934;2022-11-04T04:26:11;6.00;;;4.93;;
18532;SDS011;9396;51.510;11.934;2022-11-04T04:28:57;7.20;;;5.00;;
18532;SDS011;9396;51.510;11.934;2022-11-04T04:31:27;7.07;;;5.17;;
18532;SDS011;9396;51.510;11.934;2022-11-04T04:34:15;10.10;;;5.20;;
18532;SDS011;9396;51.510;11.934;2022-11-04T04:36:44;5.93;;;5.03;;
18532;SDS011;9396;51.510;11.934;2022-11-04T04:39:14;8.77;;;5.17;;
18532;SDS011;9396;51.510;11.934;2022-11-04T04:42:01;10.00;;;5.13;;
18532;SDS011;9396;51.510;11.934;2022-11-04T04:44:46;8.23;;;4.90;;
18532;SDS011;9396;51.510;11.934;2022-11-04T04:47:27;9.93;;;5.47;;
18532;SDS011;9396;51.510;11.934;2022-11-04T04:49:59;8.20;;;4.80;;
18532;SDS011;9396;51.510;11.934;2022-11-04T04:52:27;7.63;;;5.30;;
18532;SDS011;9396;51.510;11.934;2022-11-04T04:54:56;8.40;;;5.40;;
18532;SDS011;9396;51.510;11.934;2022-11-04T04:57:23;7.27;;;4.90;;
18532;SDS011;9396;51.510;11.934;2022-11-04T04:59:50;9.13;;;5.23;;
18532;SDS011;9396;51.510;11.934;2022-11-04T05:02:16;8.10;;;5.30;;
18532;SDS011;9396;51.510;11.934;2022-11-04T05:04:43;6.63;;;5.10;;
18532;SDS011;9396;51.510;11.934;2022-11-04T05:07:11;9.83;;;5.23;;
18532;SDS011;9396;51.510;11.934;2022-11-04T05:09:38;6.40;;;4.57;;
18532;SDS011;9396;51.510;11.934;2022-11-04T05:12:04;8.23;;;4.63;;
18532;SDS011;9396;51.510;11.934;2022-11-04T05:14:31;8.60;;;5.10;;
18532;SDS011;9396;51.510;11.934;2022-11-04T05:16:58;7.97;;;4.83;;
18532;SDS011;9396;51.510;11.934;2022-11-04T05:19:24;7.97;;;5.10;;
18532;SDS011;9396;51.510;11.934;2022-11-04T05:21:51;7.03;;;5.07;;
18532;SDS011;9396;51.510;11.934;2022-11-04T05:24:19;7.27;;;5.10;;
18532;SDS011;9396;51.510;11.934;2022-11-04T05:26:46;8.80;;;5.17;;
18532;SDS011;9396;51.510;11.934;2022-11-04T05:29:12;10.47;;;5.37;;
18532;SDS011;9396;51.510;11.934;2022-11-04T05:31:39;7.53;;;5.27;;
18532;SDS011;9396;51.510;11.934;2022-11-04T05:34:08;8.10;;;5.40;;
18532;SDS011;9396;51.510;11.934;2022-11-04T05:36:35;7.27;;;5.10;;
18532;SDS011;9396;51.510;11.934;2022-11-04T05:39:02;8.67;;;5.07;;
18532;SDS011;9396;51.510;11.934;2022-11-04T05:41:30;9.53;;;5.30;;
18532;SDS011;9396;51.510;11.934;2022-11-04T05:43:58;7.57;;;5.17;;
18532;SDS011;9396;51.510;11.934;2022-11-04T05:46:26;8.23;;;5.00;;
18532;SDS011;9396;51.510;11.934;2022-11-04T05:48:53;6.10;;;4.73;;
18532;SDS011;9396;51.510;11.934;2022-11-04T05:51:21;8.63;;;5.13;;
18532;SDS011;9396;51.510;11.934;2022-11-04T05:53:50;5.93;;;4.90;;
18532;SDS011;9396;51.510;11.934;2022-11-04T05:56:17;9.50;;;5.10;;
18532;SDS011;9396;51.510;11.934;2022-11-04T05:58:45;6.13;;;4.83;;
18532;SDS011;9396;51.510;11.934;2022-11-04T06:01:12;8.37;;;5.37;;
18532;SDS011;9396;51.510;11.934;2022-11-04T06:03:48;7.33;;;4.97;;
18532;SDS011;9396;51.510;11.934;2022-11-04T06:06:14;8.80;;;5.00;;
18532;SDS011;9396;51.510;11.934;2022-11-04T06:08:41;7.77;;;4.83;;
18532;SDS011;9396;51.510;11.934;2022-11-04T06:11:08;5.17;;;4.60;;
18532;SDS011;9396;51.510;11.934;2022-11-04T06:13:35;8.83;;;5.23;;
18532;SDS011;9396;51.510;11.934;2022-11-04T06:16:03;6.77;;;4.17;;
18532;SDS011;9396;51.510;11.934;2022-11-04T06:18:29;9.83;;;4.73;;
18532;SDS011;9396;51.510;11.934;2022-11-04T06:21:06;5.93;;;4.77;;
18532;SDS011;9396;51.510;11.934;2022-11-04T06:23:44;6.13;;;5.10;;
18532;SDS011;9396;51.510;11.934;2022-11-04T06:26:11;7.20;;;4.77;;
18532;SDS011;9396;51.510;11.934;2022-11-04T06:28:38;9.87;;;5.90;;
18532;SDS011;9396;51.510;11.934;2022-11-04T06:31:07;9.00;;;5.67;;
18532;SDS011;9396;51.510;11.934;2022-11-04T06:33:35;6.17;;;5.13;;
18532;SDS011;9396;51.510;11.934;2022-11-04T06:36:03;11.17;;;5.07;;
18532;SDS011;9396;51.510;11.934;2022-11-04T06:38:33;7.40;;;5.07;;
18532;SDS011;9396;51.510;11.934;2022-11-04T06:41:01;7.40;;;5.23;;
18532;SDS011;9396;51.510;11.934;2022-11-04T06:43:28;7.23;;;4.70;;
18532;SDS011;9396;51.510;11.934;2022-11-04T06:45:55;9.27;;;4.87;;
18532;SDS011;9396;51.510;11.934;2022-11-04T06:48:23;6.70;;;5.03;;
18532;SDS011;9396;51.510;11.934;2022-11-04T06:50:50;7.23;;;5.20;;
18532;SDS011;9396;51.510;11.934;2022-11-04T06:53:17;7.57;;;5.10;;
18532;SDS011;9396;51.510;11.934;2022-11-04T06:55:44;8.57;;;5.47;;
18532;SDS011;9396;51.510;11.934;2022-11-04T06:58:11;7.10;;;4.53;;
18532;SDS011;9396;51.510;11.934;2022-11-04T07:00:37;8.70;;;5.07;;
18532;SDS011;9396;51.510;11.934;2022-11-04T07:03:04;6.60;;;5.27;;
18532;SDS011;9396;51.510;11.934;2022-11-04T07:05:33;8.40;;;5.33;;
18532;SDS011;9396;51.510;11.934;2022-11-04T07:08:00;6.33;;;4.73;;
18532;SDS011;9396;51.510;11.934;2022-11-04T07:10:26;5.73;;;4.50;;
18532;SDS011;9396;51.510;11.934;2022-11-04T07:12:53;6.00;;;4.20;;
18532;SDS011;9396;51.510;11.934;2022-11-04T07:15:20;6.27;;;4.40;;
18532;SDS011;9396;51.510;11.934;2022-11-04T07:17:47;7.47;;;4.63;;
18532;SDS011;9396;51.510;11.934;2022-11-04T07:20:14;7.93;;;4.40;;
18532;SDS011;9396;51.510;11.934;2022-11-04T07:22:42;5.33;;;4.30;;
18532;SDS011;9396;51.510;11.934;2022-11-04T07:25:08;4.73;;;4.10;;
18532;SDS011;9396;51.510;11.934;2022-11-04T07:27:35;5.70;;;4.37;;
18532;SDS011;9396;51.510;11.934;2022-11-04T07:30:03;6.00;;;4.27;;
18532;SDS011;9396;51.510;11.934;2022-11-04T07:32:31;6.03;;;4.20;;
18532;SDS011;9396;51.510;11.934;2022-11-04T07:34:58;6.27;;;4.10;;
18532;SDS011;9396;51.510;11.934;2022-11-04T07:37:24;5.07;;;3.90;;
18532;SDS011;9396;51.510;11.934;2022-11-04T07:39:52;6.73;;;4.20;;
18532;SDS011;9396;51.510;11.934;2022-11-04T07:42:19;5.63;;;3.70;;
18532;SDS011;9396;51.510;11.934;2022-11-04T07:44:45;5.30;;;3.90;;
18532;SDS011;9396;51.510;11.934;2022-11-04T07:47:12;5.13;;;3.80;;
18532;SDS011;9396;51.510;11.934;2022-11-04T07:49:39;4.97;;;4.10;;
18532;SDS011;9396;51.510;11.934;2022-11-04T07:52:05;6.00;;;4.20;;
18532;SDS011;9396;51.510;11.934;2022-11-04T07:54:32;5.23;;;3.83;;
18532;SDS011;9396;51.510;11.934;2022-11-04T07:57:00;5.40;;;3.33;;
18532;SDS011;9396;51.510;11.934;2022-11-04T07:59:27;5.43;;;4.10;;
18532;SDS011;9396;51.510;11.934;2022-11-04T08:01:54;5.23;;;3.93;;
18532;SDS011;9396;51.510;11.934;2022-11-04T08:04:20;6.27;;;3.70;;
18532;SDS011;9396;51.510;11.934;2022-11-04T08:06:47;6.80;;;3.57;;
18532;SDS011;9396;51.510;11.934;2022-11-04T08:09:14;4.53;;;3.57;;
18532;SDS011;9396;51.510;11.934;2022-11-04T08:11:40;5.27;;;3.73;;
18532;SDS011;9396;51.510;11.934;2022-11-04T08:14:08;4.67;;;3.53;;
18532;SDS011;9396;51.510;11.934;2022-11-04T08:16:35;5.13;;;3.67;;
18532;SDS011;9396;51.510;11.934;2022-11-04T08:19:02;3.93;;;3.33;;
18532;SDS011;9396;51.510;11.934;2022-11-04T08:21:29;6.17;;;2.93;;
18532;SDS011;9396;51.510;11.934;2022-11-04T08:23:56;6.03;;;3.47;;
18532;SDS011;9396;51.510;11.934;2022-11-04T08:26:23;4.10;;;3.43;;
18532;SDS011;9396;51.510;11.934;2022-11-04T08:28:50;9.47;;;6.50;;
18532;SDS011;9396;51.510;11.934;2022-11-04T08:31:19;6.50;;;4.17;;
18532;SDS011;9396;51.510;11.934;2022-11-04T08:33:48;8.37;;;4.13;;
18532;SDS011;9396;51.510;11.934;2022-11-04T08:36:16;5.10;;;3.97;;
18532;SDS011;9396;51.510;11.934;2022-11-04T08:38:44;5.87;;;3.47;;
18532;SDS011;9396;51.510;11.934;2022-11-04T08:41:12;6.77;;;3.10;;
18532;SDS011;9396;51.510;11.934;2022-11-04T08:43:39;3.87;;;3.33;;
18532;SDS011;9396;51.510;11.934;2022-11-04T08:46:07;5.07;;;3.10;;
18532;SDS011;9396;51.510;11.934;2022-11-04T08:48:36;4.63;;;3.20;;
18532;SDS011;9396;51.510;11.934;2022-11-04T08:51:05;3.57;;;2.87;;
18532;SDS011;9396;51.510;11.934;2022-11-04T08:53:36;3.57;;;2.60;;
18532;SDS011;9396;51.510;11.934;2022-11-04T08:56:07;4.33;;;2.80;;
18532;SDS011;9396;51.510;11.934;2022-11-04T08:58:35;3.20;;;2.70;;
18532;SDS011;9396;51.510;11.934;2022-11-04T09:01:02;4.00;;;3.13;;
18532;SDS011;9396;51.510;11.934;2022-11-04T09:03:29;5.53;;;3.80;;
18532;SDS011;9396;51.510;11.934;2022-11-04T09:05:57;3.07;;;2.77;;
18532;SDS011;9396;51.510;11.934;2022-11-04T09:08:24;4.87;;;2.80;;
18532;SDS011;9396;51.510;11.934;2022-11-04T09:10:51;4.40;;;2.70;;
18532;SDS011;9396;51.510;11.934;2022-11-04T09:13:18;5.37;;;3.27;;
18532;SDS011;9396;51.510;11.934;2022-11-04T09:15:44;5.50;;;3.30;;
18532;SDS011;9396;51.510;11.934;2022-11-04T09:18:13;4.17;;;3.03;;
18532;SDS011;9396;51.510;11.934;2022-11-04T09:20:40;3.93;;;2.93;;
18532;SDS011;9396;51.510;11.934;2022-11-04T09:23:08;3.10;;;2.60;;
18532;SDS011;9396;51.510;11.934;2022-11-04T09:25:35;3.07;;;2.40;;
18532;SDS011;9396;51.510;11.934;2022-11-04T09:28:02;2.63;;;2.37;;
18532;SDS011;9396;51.510;11.934;2022-11-04T09:30:29;3.70;;;2.37;;
18532;SDS011;9396;51.510;11.934;2022-11-04T09:32:56;2.97;;;2.40;;
18532;SDS011;9396;51.510;11.934;2022-11-04T09:35:23;4.57;;;2.30;;
18532;SDS011;9396;51.510;11.934;2022-11-04T09:37:51;3.10;;;2.20;;
18532;SDS011;9396;51.510;11.934;2022-11-04T09:40:20;4.13;;;2.67;;
18532;SDS011;9396;51.510;11.934;2022-11-04T09:42:52;5.43;;;2.77;;
18532;SDS011;9396;51.510;11.934;2022-11-04T09:45:30;2.83;;;1.93;;
18532;SDS011;9396;51.510;11.934;2022-11-04T09:47:59;3.10;;;2.03;;
18532;SDS011;9396;51.510;11.934;2022-11-04T09:50:30;2.93;;;1.80;;
18532;SDS011;9396;51.510;11.934;2022-11-04T09:53:12;3.70;;;2.03;;
18532;SDS011;9396;51.510;11.934;2022-11-04T09:55:46;3.20;;;2.20;;
18532;SDS011;9396;51.510;11.934;2022-11-04T09:58:18;11.03;;;6.03;;
18532;SDS011;9396;51.510;11.934;2022-11-04T10:00:46;3.53;;;2.83;;
18532;SDS011;9396;51.510;11.934;2022-11-04T10:03:23;17.73;;;9.20;;
18532;SDS011;9396;51.510;11.934;2022-11-04T10:06:09;3.57;;;2.87;;
18532;SDS011;9396;51.510;11.934;2022-11-04T10:08:50;3.07;;;2.67;;
18532;SDS011;9396;51.510;11.934;2022-11-04T10:11:27;4.53;;;3.03;;
18532;SDS011;9396;51.510;11.934;2022-11-04T10:14:06;6.30;;;4.53;;
18532;SDS011;9396;51.510;11.934;2022-11-04T10:16:48;3.07;;;2.57;;
18532;SDS011;9396;51.510;11.934;2022-11-04T10:19:29;3.30;;;2.40;;
18532;SDS011;9396;51.510;11.934;2022-11-04T10:22:09;4.30;;;3.70;;
18532;SDS011;9396;51.510;11.934;2022-11-04T10:24:46;3.07;;;2.50;;
18532;SDS011;9396;51.510;11.934;2022-11-04T10:27:20;3.60;;;2.30;;
18532;SDS011;9396;51.510;11.934;2022-11-04T10:29:51;3.43;;;2.40;;
18532;SDS011;9396;51.510;11.934;2022-11-04T10:32:23;2.67;;;2.27;;
18532;SDS011;9396;51.510;11.934;2022-11-04T10:34:55;2.73;;;2.10;;
18532;SDS011;9396;51.510;11.934;2022-11-04T10:37:23;3.13;;;2.40;;
18532;SDS011;9396;51.510;11.934;2022-11-04T10:39:51;2.80;;;2.40;;
18532;SDS011;9396;51.510;11.934;2022-11-04T10:42:26;2.60;;;2.20;;
18532;SDS011;9396;51.510;11.934;2022-11-04T10:44:53;2.47;;;2.10;;
18532;SDS011;9396;51.510;11.934;2022-11-04T10:47:21;2.67;;;2.00;;
18532;SDS011;9396;51.510;11.934;2022-11-04T10:50:00;4.40;;;2.00;;
18532;SDS011;9396;51.510;11.934;2022-11-04T10:52:40;2.43;;;1.67;;
18532;SDS011;9396;51.510;11.934;2022-11-04T10:55:10;2.50;;;1.80;;
18532;SDS011;9396;51.510;11.934;2022-11-04T10:57:45;2.50;;;1.73;;
18532;SDS011;9396;51.510;11.934;2022-11-04T11:02:57;1.70;;;1.50;;
18532;SDS011;9396;51.510;11.934;2022-11-04T11:05:25;2.43;;;1.70;;
18532;SDS011;9396;51.510;11.934;2022-11-04T11:07:54;3.27;;;1.43;;
18532;SDS011;9396;51.510;11.934;2022-11-04T11:10:23;2.60;;;1.90;;
18532;SDS011;9396;51.510;11.934;2022-11-04T11:12:53;1.93;;;1.73;;
18532;SDS011;9396;51.510;11.934;2022-11-04T11:15:27;2.97;;;1.90;;
18532;SDS011;9396;51.510;11.934;2022-11-04T11:17:59;2.27;;;1.70;;
18532;SDS011;9396;51.510;11.934;2022-11-04T11:20:35;2.37;;;1.60;;
18532;SDS011;9396;51.510;11.934;2022-11-04T11:23:04;3.10;;;1.40;;
18532;SDS011;9396;51.510;11.934;2022-11-04T11:25:33;1.30;;;1.20;;
18532;SDS011;9396;51.510;11.934;2022-11-04T11:28:02;3.40;;;1.50;;
18532;SDS011;9396;51.510;11.934;2022-11-04T11:30:31;1.67;;;1.20;;
18532;SDS011;9396;51.510;11.934;2022-11-04T11:33:03;2.37;;;1.27;;
18532;SDS011;9396;51.510;11.934;2022-11-04T11:35:33;3.33;;;1.20;;
18532;SDS011;9396;51.510;11.934;2022-11-04T11:38:12;1.53;;;1.10;;
18532;SDS011;9396;51.510;11.934;2022-11-04T11:40:43;1.57;;;1.10;;
18532;SDS011;9396;51.510;11.934;2022-11-04T11:43:16;3.00;;;1.17;;
18532;SDS011;9396;51.510;11.934;2022-11-04T11:45:49;1.70;;;0.90;;
18532;SDS011;9396;51.510;11.934;2022-11-04T11:50:58;1.13;;;0.90;;
18532;SDS011;9396;51.510;11.934;2022-11-04T11:53:26;2.07;;;0.90;;
18532;SDS011;9396;51.510;11.934;2022-11-04T11:55:57;2.73;;;0.90;;
18532;SDS011;9396;51.510;11.934;2022-11-04T11:58:36;5.20;;;1.27;;
18532;SDS011;9396;51.510;11.934;2022-11-04T12:01:10;1.80;;;0.90;;
18532;SDS011;9396;51.510;11.934;2022-11-04T12:03:42;3.97;;;2.13;;
18532;SDS011;9396;51.510;11.934;2022-11-04T12:09:04;1.37;;;0.97;;
18532;SDS011;9396;51.510;11.934;2022-11-04T12:11:41;5.33;;;1.30;;
18532;SDS011;9396;51.510;11.934;2022-11-04T12:14:18;3.40;;;2.60;;
18532;SDS011;9396;51.510;11.934;2022-11-04T12:16:58;3.57;;;2.07;;
18532;SDS011;9396;51.510;11.934;2022-11-04T12:19:43;3.57;;;1.77;;
18532;SDS011;9396;51.510;11.934;2022-11-04T12:22:23;1.77;;;1.10;;
18532;SDS011;9396;51.510;11.934;2022-11-04T12:25:01;6.60;;;1.40;;
18532;SDS011;9396;51.510;11.934;2022-11-04T12:27:38;4.60;;;3.10;;
18532;SDS011;9396;51.510;11.934;2022-11-04T12:30:13;4.40;;;1.40;;
18532;SDS011;9396;51.510;11.934;2022-11-04T12:32:48;2.40;;;1.40;;
18532;SDS011;9396;51.510;11.934;2022-11-04T12:35:29;5.80;;;1.60;;
18532;SDS011;9396;51.510;11.934;2022-11-04T12:38:10;2.13;;;1.70;;
18532;SDS011;9396;51.510;11.934;2022-11-04T12:40:48;1.97;;;1.20;;
18532;SDS011;9396;51.510;11.934;2022-11-04T12:43:27;1.53;;;1.20;;
18532;SDS011;9396;51.510;11.934;2022-11-04T12:46:06;4.63;;;2.80;;
18532;SDS011;9396;51.510;11.934;2022-11-04T12:48:43;3.13;;;1.60;;
18532;SDS011;9396;51.510;11.934;2022-11-04T12:51:21;2.17;;;1.27;;
18532;SDS011;9396;51.510;11.934;2022-11-04T12:56:59;1.47;;;1.00;;
18532;SDS011;9396;51.510;11.934;2022-11-04T12:59:42;3.23;;;1.20;;
18532;SDS011;9396;51.510;11.934;2022-11-04T13:02:21;3.13;;;1.00;;
18532;SDS011;9396;51.510;11.934;2022-11-04T13:04:54;2.40;;;1.30;;
18532;SDS011;9396;51.510;11.934;2022-11-04T13:07:28;3.67;;;2.03;;
18532;SDS011;9396;51.510;11.934;2022-11-04T13:09:58;1.50;;;1.10;;
18532;SDS011;9396;51.510;11.934;2022-11-04T13:12:34;1.27;;;0.97;;
18532;SDS011;9396;51.510;11.934;2022-11-04T13:15:06;3.33;;;1.10;;
18532;SDS011;9396;51.510;11.934;2022-11-04T13:17:43;1.37;;;1.00;;
18532;SDS011;9396;51.510;11.934;2022-11-04T13:20:13;1.70;;;1.03;;
18532;SDS011;9396;51.510;11.934;2022-11-04T13:22:46;1.87;;;1.10;;
18532;SDS011;9396;51.510;11.934;2022-11-04T13:25:16;3.77;;;1.50;;
18532;SDS011;9396;51.510;11.934;2022-11-04T13:27:51;2.17;;;1.10;;
18532;SDS011;9396;51.510;11.934;2022-11-04T13:30:19;2.90;;;1.13;;
18532;SDS011;9396;51.510;11.934;2022-11-04T13:32:52;2.53;;;1.30;;
18532;SDS011;9396;51.510;11.934;2022-11-04T13:35:24;4.13;;;1.20;;
18532;SDS011;9396;51.510;11.934;2022-11-04T13:37:56;5.10;;;2.20;;
18532;SDS011;9396;51.510;11.934;2022-11-04T13:40:27;4.60;;;2.53;;
18532;SDS011;9396;51.510;11.934;2022-11-04T13:43:12;3.27;;;1.40;;
18532;SDS011;9396;51.510;11.934;2022-11-04T13:46:15;2.40;;;1.50;;
18532;SDS011;9396;51.510;11.934;2022-11-04T13:48:55;2.40;;;1.40;;
18532;SDS011;9396;51.510;11.934;2022-11-04T13:51:32;8.87;;;3.70;;
18532;SDS011;9396;51.510;11.934;2022-11-04T13:54:05;21.17;;;11.83;;
18532;SDS011;9396;51.510;11.934;2022-11-04T13:56:39;4.27;;;2.53;;
18532;SDS011;9396;51.510;11.934;2022-11-04T13:59:17;4.63;;;2.30;;
18532;SDS011;9396;51.510;11.934;2022-11-04T14:01:47;4.07;;;1.80;;
18532;SDS011;9396;51.510;11.934;2022-11-04T14:04:23;2.13;;;1.37;;
18532;SDS011;9396;51.510;11.934;2022-11-04T14:06:54;2.60;;;1.87;;
18532;SDS011;9396;51.510;11.934;2022-11-04T14:09:33;4.67;;;1.50;;
18532;SDS011;9396;51.510;11.934;2022-11-04T14:18:25;3.53;;;1.07;;
18532;SDS011;9396;51.510;11.934;2022-11-04T14:21:02;2.97;;;1.43;;
18532;SDS011;9396;51.510;11.934;2022-11-04T14:23:31;2.67;;;1.07;;
18532;SDS011;9396;51.510;11.934;2022-11-04T14:25:59;4.93;;;1.17;;
18532;SDS011;9396;51.510;11.934;2022-11-04T14:28:28;2.60;;;1.40;;
18532;SDS011;9396;51.510;11.934;2022-11-04T14:30:57;3.87;;;1.30;;
18532;SDS011;9396;51.510;11.934;2022-11-04T14:33:30;2.03;;;1.27;;
18532;SDS011;9396;51.510;11.934;2022-11-04T14:36:15;2.20;;;1.17;;
18532;SDS011;9396;51.510;11.934;2022-11-04T14:38:53;2.63;;;1.33;;
18532;SDS011;9396;51.510;11.934;2022-11-04T14:41:28;1.80;;;1.27;;
18532;SDS011;9396;51.510;11.934;2022-11-04T14:44:12;3.53;;;1.30;;
18532;SDS011;9396;51.510;11.934;2022-11-04T14:46:46;3.27;;;1.33;;
18532;SDS011;9396;51.510;11.934;2022-11-04T14:49:24;2.50;;;1.40;;
18532;SDS011;9396;51.510;11.934;2022-11-04T14:51:59;4.70;;;1.20;;
18532;SDS011;9396;51.510;11.934;2022-11-04T14:54:28;3.87;;;1.30;;
18532;SDS011;9396;51.510;11.934;2022-11-04T14:57:05;3.60;;;1.10;;
18532;SDS011;9396;51.510;11.934;2022-11-04T14:59:37;2.27;;;1.20;;
18532;SDS011;9396;51.510;11.934;2022-11-04T15:02:07;2.20;;;1.10;;
18532;SDS011;9396;51.510;11.934;2022-11-04T15:04:43;1.70;;;0.97;;
18532;SDS011;9396;51.510;11.934;2022-11-04T15:07:21;2.73;;;1.10;;
18532;SDS011;9396;51.510;11.934;2022-11-04T15:09:50;3.70;;;1.13;;
18532;SDS011;9396;51.510;11.934;2022-11-04T15:12:18;3.17;;;1.13;;
18532;SDS011;9396;51.510;11.934;2022-11-04T15:15:01;7.73;;;1.30;;
18532;SDS011;9396;51.510;11.934;2022-11-04T15:17:45;5.83;;;1.57;;
18532;SDS011;9396;51.510;11.934;2022-11-04T15:20:14;1.70;;;1.10;;
18532;SDS011;9396;51.510;11.934;2022-11-04T15:22:50;5.73;;;1.50;;
18532;SDS011;9396;51.510;11.934;2022-11-04T15:25:17;3.97;;;1.70;;
18532;SDS011;9396;51.510;11.934;2022-11-04T15:27:44;5.97;;;1.47;;
18532;SDS011;9396;51.510;11.934;2022-11-04T15:30:18;2.80;;;1.60;;
18532;SDS011;9396;51.510;11.934;2022-11-04T15:32:53;3.73;;;1.53;;
18532;SDS011;9396;51.510;11.934;2022-11-04T15:35:21;7.67;;;1.67;;